Time;durP1;ratioP1;P1;durP2;ratioP2;P2;SDS_P1;SDS_P2;PMS_P1;PMS_P2;Temp;Humidity;BMP_temperature;BMP_pressure;BME280_temperature;BME280_humidity;BME280_pressure;Samples;Min_cycle;Max_cycle;Signal;HPM_P1;HPM_P2
2022/09/30 00:00:55;;;;;;;10.25;3.90;;;;;;;10.46;69.71;99545.28;4982329;28;20046;-43
2022/09/30 00:03:22;;;;;;;11.73;3.15;;;;;;;10.44;69.58;99541.84;4984888;28;20662;-43
2022/09/30 00:05:59;;;;;;;9.02;3.97;;;;;;;10.40;69.72;99534.94;4984188;28;20820;-44
2022/09/30 00:08:33;;;;;;;10.18;3.33;;;;;;;10.41;69.51;99536.69;4985321;28;20149;-42
2022/09/30 00:13:37;;;;;;;15.77;5.68;;;;;;;10.91;69.50;99531.81;5021417;28;20802;-43
2022/09/30 00:16:05;;;;;;;15.68;3.20;;;;;;;10.60;69.87;99531.34;5025129;28;20081;-42
2022/09/30 00:18:32;;;;;;;10.10;2.88;;;;;;;10.53;70.33;99525.34;5026424;28;20137;-42
2022/09/30 00:21:00;;;;;;;9.65;3.25;;;;;;;10.48;69.99;99527.16;5032913;28;20057;-41
2022/09/30 00:23:27;;;;;;;6.65;3.33;;;;;;;10.45;70.54;99528.03;5023619;28;20061;-43
2022/09/30 00:26:00;;;;;;;18.00;3.33;;;;;;;10.41;70.53;99526.31;5022581;28;20489;-45
2022/09/30 00:28:28;;;;;;;6.93;3.03;;;;;;;10.39;69.81;99528.94;5037668;28;20060;-42
2022/09/30 00:31:06;;;;;;;10.18;3.22;;;;;;;10.35;70.33;99531.56;5023016;28;20136;-44
2022/09/30 00:33:33;;;;;;;11.25;3.22;;;;;;;10.36;70.49;99534.13;5025415;28;20068;-44
2022/09/30 00:36:00;;;;;;;9.40;3.30;;;;;;;10.33;70.23;99534.16;5025275;28;20715;-43
2022/09/30 00:38:27;;;;;;;9.63;3.80;;;;;;;10.32;70.54;99532.44;5038321;28;20073;-43
2022/09/30 00:40:55;;;;;;;12.00;3.45;;;;;;;10.33;70.43;99538.50;5023514;28;20086;-43
2022/09/30 00:43:42;;;;;;;13.48;3.83;;;;;;;10.24;69.84;99535.09;5023098;28;22049;-43
2022/09/30 00:46:19;;;;;;;8.88;3.25;;;;;;;10.23;70.46;99530.81;5029433;28;20696;-44
2022/09/30 00:48:52;;;;;;;9.23;3.88;;;;;;;10.22;69.91;99526.50;5013082;28;20165;-42
2022/09/30 00:51:31;;;;;;;7.60;3.25;;;;;;;10.18;69.73;99529.13;5000034;28;20125;-43
2022/09/30 00:54:02;;;;;;;8.45;3.05;;;;;;;10.12;69.52;99520.56;5009336;28;20121;-44
2022/09/30 00:56:36;;;;;;;7.45;3.10;;;;;;;10.08;69.87;99523.19;5005583;28;20061;-45
2022/09/30 00:59:07;;;;;;;10.18;4.13;;;;;;;10.07;70.04;99529.25;5000700;28;20085;-44
2022/09/30 01:01:37;;;;;;;9.38;3.47;;;;;;;10.06;69.76;99535.28;5004229;28;20089;-45
2022/09/30 01:04:10;;;;;;;8.02;3.28;;;;;;;10.03;70.03;99531.84;5019567;28;20135;-42
2022/09/30 01:06:37;;;;;;;8.43;3.47;;;;;;;10.02;70.09;99537.03;5003895;28;20070;-43
2022/09/30 01:09:04;;;;;;;9.40;3.42;;;;;;;10.00;70.12;99531.88;5005616;28;20068;-43
2022/09/30 01:11:30;;;;;;;14.80;3.92;;;;;;;10.00;69.93;99537.03;5000606;28;20108;-44
2022/09/30 01:14:10;;;;;;;11.18;3.47;;;;;;;9.96;70.56;99529.34;5001640;28;20134;-44
2022/09/30 01:25:14;;;;;;;11.10;5.18;;;;;;;9.82;69.80;99522.53;5040579;27;20393;-43
2022/09/30 01:31:10;;;;;;;6.47;3.17;;;;;;;9.76;70.49;99528.63;5037343;28;20411;-43
2022/09/30 01:36:35;;;;;;;14.93;6.47;;;;;;;10.23;69.80;99532.56;5081249;27;20401;-42
2022/09/30 01:39:15;;;;;;;10.70;5.25;;;;;;;9.94;70.21;99529.34;5058928;28;20140;-43
2022/09/30 01:47:23;;;;;;;10.23;3.35;;;;;;;9.75;70.63;99513.97;5063326;27;20410;-46
2022/09/30 01:50:00;;;;;;;9.02;4.00;;;;;;;9.72;70.56;99505.38;5000586;28;20073;-44
2022/09/30 01:58:28;;;;;;;33.30;5.00;;;;;;;9.60;70.19;99514.09;5027874;27;20396;-44
2022/09/30 02:01:00;;;;;;;44.38;4.53;;;;;;;9.62;70.67;99520.97;5009880;28;20054;-43
2022/09/30 02:03:33;;;;;;;31.48;4.88;;;;;;;9.59;70.41;99520.16;4987358;28;20161;-43
2022/09/30 02:06:06;;;;;;;36.25;4.30;;;;;;;9.58;71.00;99518.41;4983634;28;20502;-45
2022/09/30 02:08:57;;;;;;;30.52;3.55;;;;;;;9.49;70.53;99517.59;4991882;28;20171;-44
2022/09/30 02:11:27;;;;;;;10.35;3.55;;;;;;;9.52;70.33;99516.72;5011646;28;20390;-44
2022/09/30 02:16:40;;;;;;;6.45;3.05;;;;;;;9.45;70.16;99521.09;5069564;27;20416;-41
2022/09/30 02:19:17;;;;;;;10.50;4.80;;;;;;;9.43;69.88;99522.84;5073845;28;20445;-44
2022/09/30 02:21:52;;;;;;;8.73;4.28;;;;;;;9.43;70.58;99528.00;5060166;28;20123;-42
2022/09/30 02:24:24;;;;;;;10.98;5.53;;;;;;;9.42;70.61;99518.50;5058848;28;20575;-43
2022/09/30 02:26:55;;;;;;;12.50;4.10;;;;;;;9.42;70.72;99517.69;5065334;28;20052;-41
2022/09/30 02:29:27;;;;;;;9.80;3.47;;;;;;;9.40;70.59;99520.25;5099840;28;20078;-45
2022/09/30 02:31:59;;;;;;;8.48;3.80;;;;;;;9.38;70.92;99522.84;5095181;28;20415;-43
2022/09/30 02:34:35;;;;;;;30.63;5.55;;;;;;;9.36;70.82;99519.41;5103920;28;20487;-41
2022/09/30 02:37:09;;;;;;;16.63;3.40;;;;;;;9.36;70.44;99518.56;5098438;28;20050;-43
2022/09/30 02:39:59;;;;;;;7.95;3.33;;;;;;;9.31;70.77;99516.00;5095711;28;20162;-44
2022/09/30 02:42:28;;;;;;;7.18;3.30;;;;;;;9.34;70.85;99520.28;5101893;28;20071;-43
2022/09/30 02:45:00;;;;;;;9.50;3.42;;;;;;;9.33;70.58;99528.91;5101637;28;20154;-43
2022/09/30 02:50:19;;;;;;;21.35;4.18;;;;;;;9.33;71.14;99528.91;5046387;28;20915;-45
2022/09/30 02:53:25;;;;;;;36.17;4.32;;;;;;;9.28;71.48;99528.94;5015545;28;20142;-42
2022/09/30 02:58:29;;;;;;;18.55;5.10;;;;;;;9.34;71.11;99528.91;5031204;28;20912;-43
2022/09/30 03:00:56;;;;;;;25.58;6.38;;;;;;;9.37;71.42;99520.28;5004731;28;20145;-44
2022/09/30 03:03:29;;;;;;;36.47;5.47;;;;;;;9.38;70.75;99527.16;5007126;28;20494;-41
2022/09/30 03:05:55;;;;;;;32.90;5.60;;;;;;;9.40;71.18;99517.69;5007271;28;20125;-44
2022/09/30 03:08:22;;;;;;;44.33;5.78;;;;;;;9.40;71.08;99515.09;5002083;28;20149;-46
2022/09/30 03:10:50;;;;;;;18.08;5.85;;;;;;;9.42;71.25;99520.25;5013191;28;20147;-41
2022/09/30 03:19:04;;;;;;;13.60;3.05;;;;;;;9.23;70.98;99497.94;5049293;27;20407;-42
2022/09/30 03:38:36;;;;;;;8.52;4.00;;;;;;;8.99;70.04;99483.47;5063364;27;20399;-44
2022/09/30 03:46:35;;;;;;;18.75;3.30;;;;;;;9.02;70.67;99487.75;5013103;28;20433;-42
2022/09/30 03:49:06;;;;;;;19.92;3.30;;;;;;;9.02;70.12;99482.59;5005089;28;20050;-42
2022/09/30 03:51:37;;;;;;;18.48;3.40;;;;;;;9.04;70.15;99483.41;5012953;28;20142;-42
2022/09/30 03:54:10;;;;;;;13.88;3.63;;;;;;;9.00;70.17;99480.00;4983263;28;20507;-41
2022/09/30 03:56:41;;;;;;;11.90;3.22;;;;;;;8.97;70.96;99480.03;4983066;28;20503;-42
2022/09/30 03:59:11;;;;;;;24.45;3.28;;;;;;;8.97;70.80;99483.47;4983988;28;20050;-44
2022/09/30 04:01:38;;;;;;;12.18;3.00;;;;;;;8.97;70.64;99490.34;4987713;28;20051;-43
2022/09/30 04:04:05;;;;;;;13.85;2.90;;;;;;;8.95;69.92;99487.78;4998184;28;20042;-44
2022/09/30 04:06:32;;;;;;;28.40;3.78;;;;;;;8.94;70.75;99473.16;4994051;28;20141;-42
2022/09/30 04:08:58;;;;;;;9.63;2.78;;;;;;;8.91;71.03;99486.06;4985042;28;20145;-43
2022/09/30 04:11:25;;;;;;;6.38;2.55;;;;;;;8.89;70.59;99487.81;4993291;28;20046;-43
2022/09/30 04:13:51;;;;;;;13.10;2.72;;;;;;;8.84;70.87;99474.06;4989544;28;20144;-41
2022/09/30 04:16:18;;;;;;;8.32;2.47;;;;;;;8.80;70.52;99475.81;4985517;28;20077;-42
2022/09/30 04:18:45;;;;;;;10.02;2.90;;;;;;;8.79;70.03;99475.81;4991997;28;20085;-46
2022/09/30 04:21:14;;;;;;;12.15;2.67;;;;;;;8.74;69.76;99479.28;4993718;28;20056;-43
2022/09/30 04:23:41;;;;;;;6.32;2.72;;;;;;;8.70;70.03;99487.91;4998594;28;20165;-44
2022/09/30 04:26:11;;;;;;;6.88;2.80;;;;;;;8.66;70.27;99480.16;4989589;28;20077;-42
2022/09/30 04:28:38;;;;;;;7.32;3.13;;;;;;;8.63;70.54;99478.47;4991951;28;20043;-42
2022/09/30 04:31:05;;;;;;;7.85;2.55;;;;;;;8.57;70.03;99470.72;4991322;28;20494;-42
2022/09/30 04:33:32;;;;;;;6.82;2.97;;;;;;;8.56;69.65;99485.38;4986512;28;20058;-44
2022/09/30 04:35:59;;;;;;;5.93;2.22;;;;;;;8.55;69.67;99472.47;4990039;28;20503;-43
2022/09/30 04:38:26;;;;;;;11.45;4.40;;;;;;;8.54;70.50;99468.19;4983161;28;20141;-41
2022/09/30 04:40:54;;;;;;;38.20;12.95;;;;;;;8.51;70.63;99470.72;4989833;28;20054;-42
2022/09/30 04:43:22;;;;;;;16.92;5.47;;;;;;;8.48;70.57;99467.28;4985925;28;20101;-42
2022/09/30 04:45:51;;;;;;;7.45;2.95;;;;;;;8.52;70.53;99464.69;4992035;28;20486;-42
2022/09/30 04:48:18;;;;;;;9.35;2.00;;;;;;;8.52;70.53;99457.81;4988349;28;20043;-44
2022/09/30 04:50:45;;;;;;;8.57;3.13;;;;;;;8.49;70.52;99460.41;4992106;28;20145;-44
2022/09/30 04:53:13;;;;;;;11.00;4.03;;;;;;;8.49;69.95;99463.00;4999664;28;20133;-42
2022/09/30 04:55:41;;;;;;;15.48;3.58;;;;;;;8.47;69.80;99454.38;4984889;28;20045;-45
2022/09/30 04:58:07;;;;;;;6.60;2.17;;;;;;;8.46;70.35;99461.28;4974196;28;20894;-45
2022/09/30 05:00:34;;;;;;;5.68;2.40;;;;;;;8.45;70.35;99451.81;4967807;28;20102;-43
2022/09/30 05:03:02;;;;;;;6.38;2.53;;;;;;;8.43;69.42;99450.97;4978002;28;20047;-42
2022/09/30 05:05:29;;;;;;;4.35;2.33;;;;;;;8.42;69.82;99444.09;4984349;28;20088;-42
2022/09/30 05:08:00;;;;;;;7.35;2.28;;;;;;;8.42;69.95;99445.81;4962875;28;20050;-42
2022/09/30 05:10:28;;;;;;;4.50;2.45;;;;;;;8.39;69.57;99462.16;4962519;28;20061;-43
2022/09/30 05:12:56;;;;;;;4.57;2.40;;;;;;;8.36;69.63;99457.00;4975155;28;20494;-44
2022/09/30 05:15:24;;;;;;;4.88;2.45;;;;;;;8.33;69.48;99452.72;4976593;28;20085;-47
2022/09/30 05:17:51;;;;;;;4.78;2.30;;;;;;;8.30;69.59;99442.41;4974803;28;20070;-43
2022/09/30 05:20:19;;;;;;;5.25;2.45;;;;;;;8.29;69.45;99445.00;5003676;28;20058;-43
2022/09/30 05:22:52;;;;;;;25.52;2.75;;;;;;;8.28;70.18;99443.28;4978247;28;20375;-43
2022/09/30 05:25:18;;;;;;;19.27;3.22;;;;;;;8.25;69.80;99432.97;4975412;28;20074;-43
2022/09/30 05:27:48;;;;;;;13.30;2.15;;;;;;;8.25;69.60;99439.00;4975012;28;20073;-43
2022/09/30 05:30:15;;;;;;;13.07;2.55;;;;;;;8.25;69.61;99431.25;4972744;28;20078;-45
2022/09/30 05:32:42;;;;;;;17.48;2.85;;;;;;;8.26;69.82;99430.38;4975211;28;20097;-43
2022/09/30 05:35:10;;;;;;;20.40;6.18;;;;;;;8.25;70.65;99430.38;4982392;28;20203;-45
2022/09/30 05:37:37;;;;;;;17.75;7.63;;;;;;;8.23;69.33;99426.09;4976690;28;20058;-41
2022/09/30 05:40:06;;;;;;;17.45;8.38;;;;;;;8.25;69.71;99432.97;4964656;28;20082;-41
2022/09/30 05:42:34;;;;;;;16.45;5.25;;;;;;;8.22;69.60;99424.38;4966680;28;20047;-43
2022/09/30 05:45:03;;;;;;;7.97;2.85;;;;;;;8.25;69.49;99427.81;4972480;28;20097;-45
2022/09/30 05:47:30;;;;;;;13.00;2.67;;;;;;;8.22;70.73;99421.81;5006437;28;20137;-43
2022/09/30 05:49:56;;;;;;;17.35;2.55;;;;;;;8.23;69.41;99420.06;4966159;28;20090;-42
2022/09/30 05:52:23;;;;;;;11.13;2.70;;;;;;;8.21;69.81;99412.31;4968344;28;20106;-41
2022/09/30 05:54:50;;;;;;;17.10;2.00;;;;;;;8.20;70.80;99402.88;4985396;28;20138;-42
2022/09/30 05:57:16;;;;;;;15.40;2.88;;;;;;;8.20;70.87;99399.44;4967725;28;20059;-43
2022/09/30 05:59:43;;;;;;;5.95;2.67;;;;;;;8.20;70.28;99400.31;4978493;28;20039;-42
2022/09/30 06:02:09;;;;;;;10.65;2.42;;;;;;;8.20;69.86;99400.31;4968519;28;20134;-43
2022/09/30 06:04:36;;;;;;;21.02;3.35;;;;;;;8.21;70.42;99396.84;4964481;28;20135;-42
2022/09/30 06:07:03;;;;;;;28.00;4.97;;;;;;;8.22;70.21;99393.44;4969603;28;20631;-45
2022/09/30 06:09:35;;;;;;;18.95;5.18;;;;;;;8.23;70.85;99395.13;4960564;28;20061;-45
2022/09/30 06:12:02;;;;;;;16.08;3.75;;;;;;;8.26;70.82;99393.38;4963147;28;20051;-42
2022/09/30 06:14:29;;;;;;;10.82;3.40;;;;;;;8.28;69.73;99386.53;4968350;28;20137;-42
2022/09/30 06:16:55;;;;;;;12.85;4.30;;;;;;;8.31;70.61;99383.94;4973279;28;20569;-43
2022/09/30 06:19:22;;;;;;;14.07;3.33;;;;;;;8.34;70.52;99379.59;4966860;28;20051;-43
2022/09/30 06:21:49;;;;;;;7.63;3.15;;;;;;;8.37;70.23;99376.16;4964296;28;20240;-44
2022/09/30 06:24:15;;;;;;;16.95;3.08;;;;;;;8.42;70.15;99373.56;4975227;28;20075;-43
2022/09/30 06:26:42;;;;;;;12.77;3.03;;;;;;;8.45;70.27;99369.22;4971643;28;20550;-42
2022/09/30 06:29:08;;;;;;;10.93;3.72;;;;;;;8.51;69.83;99367.50;4972752;28;20093;-44
2022/09/30 06:31:35;;;;;;;9.35;2.67;;;;;;;8.56;70.13;99376.97;4967067;28;20101;-45
2022/09/30 06:34:03;;;;;;;10.05;3.15;;;;;;;8.60;70.20;99373.50;4967633;28;20050;-44
2022/09/30 06:36:31;;;;;;;9.60;3.28;;;;;;;8.64;70.31;99366.56;4995096;28;20054;-44
2022/09/30 06:38:59;;;;;;;10.48;3.92;;;;;;;8.70;70.95;99353.66;4968637;28;20079;-43
2022/09/30 06:41:27;;;;;;;4.25;2.13;;;;;;;8.77;70.42;99351.00;4964523;28;20146;-43
2022/09/30 06:43:55;;;;;;;5.18;2.85;;;;;;;8.85;70.86;99346.66;4969650;28;20504;-43
2022/09/30 06:46:35;;;;;;;6.25;2.90;;;;;;;8.94;70.71;99346.59;4967730;28;20070;-44
2022/09/30 06:49:13;;;;;;;8.55;2.38;;;;;;;9.04;71.33;99347.38;4967974;28;20051;-44
2022/09/30 06:51:40;;;;;;;11.25;2.67;;;;;;;9.15;71.41;99339.53;4967734;28;20125;-45
2022/09/30 06:54:08;;;;;;;7.97;2.50;;;;;;;9.26;70.91;99336.88;4964434;28;20065;-43
2022/09/30 06:56:35;;;;;;;9.93;3.35;;;;;;;9.38;71.60;99341.06;4967331;28;20046;-44
2022/09/30 06:59:02;;;;;;;10.45;3.20;;;;;;;9.49;72.30;99338.41;4996036;28;20145;-42
2022/09/30 07:01:29;;;;;;;13.00;4.00;;;;;;;9.61;71.83;99342.56;4963189;28;20047;-43
2022/09/30 07:03:56;;;;;;;14.35;5.30;;;;;;;9.70;72.12;99336.47;4963466;28;20137;-46
2022/09/30 07:06:25;;;;;;;12.23;4.82;;;;;;;9.80;72.94;99332.91;4970536;28;20046;-43
2022/09/30 07:08:53;;;;;;;11.60;4.80;;;;;;;9.90;73.21;99328.47;4965740;28;20059;-43
2022/09/30 07:11:19;;;;;;;19.70;5.43;;;;;;;9.98;73.38;99331.84;4969570;28;20411;-41
2022/09/30 07:13:48;;;;;;;17.75;5.10;;;;;;;10.09;72.83;99317.88;4963763;28;20053;-43
2022/09/30 07:16:17;;;;;;;12.73;4.65;;;;;;;10.16;73.19;99309.19;4971271;28;20042;-43
2022/09/30 07:18:45;;;;;;;12.50;3.92;;;;;;;10.22;74.07;99313.41;4967504;28;20051;-41
2022/09/30 07:21:14;;;;;;;10.60;4.15;;;;;;;10.28;73.35;99311.63;4966695;28;20122;-43
2022/09/30 07:23:46;;;;;;;15.48;3.67;;;;;;;10.29;73.92;99309.88;5007066;28;20375;-41
2022/09/30 07:26:15;;;;;;;9.85;3.28;;;;;;;10.32;74.36;99308.97;4971925;28;20055;-43
2022/09/30 07:28:42;;;;;;;14.05;3.70;;;;;;;10.36;74.48;99298.56;4968990;28;20042;-44
2022/09/30 07:31:12;;;;;;;13.55;3.25;;;;;;;10.44;74.22;99301.06;4969668;28;20050;-46
2022/09/30 07:33:58;;;;;;;8.85;2.78;;;;;;;10.52;74.43;99296.66;4987009;28;20061;-45
2022/09/30 07:36:28;;;;;;;7.38;2.58;;;;;;;10.62;74.91;99299.09;4972830;28;20141;-42
2022/09/30 07:39:04;;;;;;;7.03;3.08;;;;;;;10.76;73.87;99310.09;4970661;28;20137;-43
2022/09/30 07:41:32;;;;;;;8.15;3.47;;;;;;;10.92;74.54;99300.34;5004877;28;20659;-42
2022/09/30 07:43:58;;;;;;;6.60;2.38;;;;;;;11.08;74.76;99296.66;5006509;28;20129;-43
2022/09/30 07:46:29;;;;;;;7.93;3.15;;;;;;;11.21;74.05;99300.72;4976499;28;20133;-45
2022/09/30 07:49:00;;;;;;;7.63;3.40;;;;;;;11.30;74.07;99289.34;4976872;28;20137;-44
2022/09/30 07:51:30;;;;;;;7.80;2.97;;;;;;;11.40;73.88;99284.84;4973873;28;20097;-42
2022/09/30 07:54:01;;;;;;;5.85;2.40;;;;;;;11.47;73.90;99281.28;4981454;28;20126;-42
2022/09/30 07:56:28;;;;;;;10.40;3.28;;;;;;;11.52;73.61;99282.03;5001414;28;20183;-42
2022/09/30 07:59:15;;;;;;;6.45;3.08;;;;;;;11.56;73.47;99283.69;4997316;28;20080;-42
2022/09/30 08:01:41;;;;;;;6.55;2.80;;;;;;;11.62;73.06;99285.28;4971446;28;20161;-44
2022/09/30 08:04:10;;;;;;;6.10;3.05;;;;;;;11.65;74.34;99281.81;4970453;28;20061;-43
2022/09/30 08:06:41;;;;;;;7.43;2.95;;;;;;;11.69;73.08;99291.25;4968586;28;20125;-44
2022/09/30 08:09:08;;;;;;;8.77;2.90;;;;;;;11.70;73.26;99293.81;4971972;28;20134;-43
2022/09/30 08:11:36;;;;;;;7.97;3.90;;;;;;;11.72;72.88;99290.31;4980168;28;20658;-44
2022/09/30 08:14:03;;;;;;;9.48;3.08;;;;;;;11.74;73.20;99294.59;4976185;28;20681;-45
2022/09/30 08:16:30;;;;;;;8.98;4.10;;;;;;;11.78;73.95;99280.66;4980918;28;20145;-44
2022/09/30 08:18:59;;;;;;;8.35;4.28;;;;;;;11.84;73.11;99279.69;4977465;28;20109;-43
2022/09/30 08:21:26;;;;;;;10.10;4.30;;;;;;;11.89;74.12;99272.66;4989298;28;20554;-41
2022/09/30 08:23:54;;;;;;;7.85;3.67;;;;;;;11.93;73.68;99252.72;4973432;28;20077;-42
2022/09/30 08:26:21;;;;;;;8.07;3.95;;;;;;;11.93;72.82;99257.91;4974939;28;20149;-43
2022/09/30 08:28:47;;;;;;;8.43;3.88;;;;;;;11.93;73.02;99260.50;4972855;28;20077;-44
2022/09/30 08:31:18;;;;;;;9.80;4.05;;;;;;;11.92;74.03;99261.38;4974700;28;20442;-44
2022/09/30 08:33:45;;;;;;;9.75;4.15;;;;;;;11.94;74.09;99257.00;4969545;28;20073;-46
2022/09/30 08:36:16;;;;;;;9.95;4.60;;;;;;;11.98;73.18;99255.19;4976087;28;20071;-45
2022/09/30 08:38:43;;;;;;;8.70;3.58;;;;;;;11.98;73.87;99253.44;4975245;28;20137;-46
2022/09/30 08:44:26;;;;;;;10.60;3.67;;;;;;;12.00;73.31;99238.72;5046230;27;20413;-46
2022/09/30 08:52:21;;;;;;;10.27;4.60;;;;;;;12.08;73.98;99231.66;5035790;27;20414;-43
2022/09/30 08:55:13;;;;;;;9.75;4.43;;;;;;;12.16;73.36;99238.41;5020177;28;20059;-45
2022/09/30 08:57:43;;;;;;;14.63;5.95;;;;;;;12.25;72.76;99238.19;5021685;28;20049;-45
2022/09/30 09:00:16;;;;;;;10.80;4.85;;;;;;;12.31;73.83;99232.88;5019150;28;20045;-42
2022/09/30 09:02:48;;;;;;;10.70;4.28;;;;;;;12.34;73.83;99232.78;5018851;28;20413;-43
2022/09/30 09:08:14;;;;;;;11.75;3.88;;;;;;;12.40;73.53;99225.75;5047032;27;20408;-44
2022/09/30 09:10:45;;;;;;;11.82;4.45;;;;;;;12.43;74.30;99228.28;5040775;28;20053;-42
2022/09/30 09:18:50;;;;;;;14.05;6.97;;;;;;;12.53;73.73;99221.13;5051129;27;20382;-42
2022/09/30 09:24:01;;;;;;;11.23;5.20;;;;;;;12.58;73.15;99217.53;5034112;28;20381;-43
2022/09/30 09:26:34;;;;;;;9.07;4.45;;;;;;;12.63;72.85;99213.97;5003046;28;20137;-43
2022/09/30 09:29:40;;;;;;;8.38;4.28;;;;;;;12.61;72.78;99203.59;5002503;28;20100;-42
2022/09/30 09:32:13;;;;;;;8.90;4.40;;;;;;;12.69;72.92;99200.78;5017717;28;20122;-43
2022/09/30 09:34:40;;;;;;;10.95;4.88;;;;;;;12.73;72.70;99192.91;5000398;28;20042;-44
2022/09/30 09:47:38;;;;;;;13.82;6.32;;;;;;;12.93;72.53;99172.47;5118908;27;20403;-44
2022/09/30 09:50:15;;;;;;;13.15;6.75;;;;;;;12.98;73.40;99165.41;5062053;28;20143;-49
2022/09/30 09:52:57;;;;;;;14.13;6.53;;;;;;;13.02;73.27;99164.44;5043937;28;20054;-45
2022/09/30 09:55:23;;;;;;;15.40;6.43;;;;;;;13.13;73.65;99160.72;5042062;28;20122;-44
2022/09/30 09:58:10;;;;;;;14.13;6.72;;;;;;;13.17;73.70;99154.53;5047428;28;20504;-43
2022/09/30 10:03:28;;;;;;;14.02;5.40;;;;;;;13.32;73.22;99135.88;5044060;27;20739;-43
2022/09/30 10:08:38;;;;;;;14.05;6.10;;;;;;;13.46;73.00;99114.69;5050653;27;20418;-44
2022/09/30 10:11:15;;;;;;;15.18;5.65;;;;;;;13.52;71.86;99115.41;5004262;28;20049;-41
2022/09/30 10:13:44;;;;;;;13.32;5.53;;;;;;;13.56;72.74;99099.66;5051736;28;20050;-43
2022/09/30 10:16:31;;;;;;;12.25;5.57;;;;;;;13.55;72.52;99097.97;5023352;28;20074;-42
2022/09/30 10:18:59;;;;;;;12.90;5.30;;;;;;;13.60;71.52;99098.69;5051496;28;20223;-41
2022/09/30 10:21:27;;;;;;;11.85;5.05;;;;;;;13.57;72.02;99093.56;5021911;28;20145;-44
2022/09/30 10:23:54;;;;;;;11.65;4.68;;;;;;;13.60;71.53;99083.06;5022196;28;20052;-42
2022/09/30 10:26:23;;;;;;;12.20;5.00;;;;;;;13.64;71.54;99088.19;5022049;28;20778;-42
2022/09/30 10:31:36;;;;;;;14.88;6.72;;;;;;;13.61;70.94;99053.53;5033374;27;20394;-43
2022/09/30 10:37:08;;;;;;;10.38;4.72;;;;;;;13.57;70.20;99038.94;5022058;27;20736;-43
2022/09/30 10:39:37;;;;;;;8.98;3.75;;;;;;;13.57;70.00;99044.13;4996783;28;20493;-43
2022/09/30 10:44:45;;;;;;;10.75;4.13;;;;;;;13.57;70.25;99028.53;5097196;27;20392;-43
2022/09/30 10:47:17;;;;;;;8.38;4.10;;;;;;;13.57;69.58;99025.91;5052954;28;20044;-41
2022/09/30 10:49:53;;;;;;;7.80;3.70;;;;;;;13.57;69.28;99023.31;5072263;28;20076;-45
2022/09/30 10:52:25;;;;;;;9.32;4.95;;;;;;;13.59;70.08;99029.34;5066764;28;20144;-42
2022/09/30 10:54:56;;;;;;;10.35;3.08;;;;;;;13.62;69.77;99028.38;5056473;28;20045;-42
2022/09/30 10:57:28;;;;;;;6.43;3.00;;;;;;;13.64;69.29;99028.34;5041895;28;20127;-44
2022/09/30 11:00:00;;;;;;;5.45;2.72;;;;;;;13.67;68.82;99030.81;5044144;28;20127;-43
2022/09/30 11:02:51;;;;;;;7.35;2.75;;;;;;;13.63;69.03;99017.06;5065808;28;20045;-44
2022/09/30 11:08:20;;;;;;;5.25;2.08;;;;;;;13.67;68.59;98986.59;5024692;28;20417;-42
2022/09/30 11:11:10;;;;;;;7.93;2.50;;;;;;;13.77;68.74;98985.41;5009497;28;20448;-43
2022/09/30 11:16:23;;;;;;;5.55;2.97;;;;;;;13.84;69.04;98973.03;5081026;27;20403;-41
2022/09/30 11:19:01;;;;;;;4.65;2.45;;;;;;;13.87;68.23;98957.31;5075416;28;20047;-42
2022/09/30 11:21:52;;;;;;;6.20;2.35;;;;;;;13.88;68.37;98949.44;5083507;28;20044;-42
2022/09/30 11:24:44;;;;;;;4.35;2.45;;;;;;;13.94;68.34;98937.13;5079426;28;20052;-44
2022/09/30 11:41:07;;;;;;;6.38;2.58;;;;;;;14.65;66.85;98931.97;5058455;28;20745;-43
2022/09/30 11:44:01;;;;;;;5.57;2.92;;;;;;;14.75;67.15;98934.22;5019672;27;20541;-41
2022/09/30 12:02:49;;;;;;;6.57;2.90;;;;;;;15.02;65.33;98876.75;5072753;27;20390;-43
2022/09/30 12:05:26;;;;;;;3.40;1.83;;;;;;;14.99;65.06;98874.25;5035858;28;20053;-43
2022/09/30 12:10:38;;;;;;;4.22;3.83;;;;;;;14.98;65.02;98864.75;5053416;27;20876;-43
2022/09/30 12:13:14;;;;;;;6.75;4.32;;;;;;;14.97;65.23;98860.44;5051007;28;20077;-42
2022/09/30 12:15:44;;;;;;;6.35;3.95;;;;;;;14.97;65.26;98863.06;5031943;28;20099;-42
2022/09/30 12:18:24;;;;;;;7.13;4.53;;;;;;;14.98;65.37;98857.78;5040826;28;20128;-46
2022/09/30 12:21:17;;;;;;;6.20;3.67;;;;;;;14.96;65.17;98856.16;5040707;28;20110;-41
2022/09/30 12:23:50;;;;;;;4.75;3.63;;;;;;;14.94;64.60;98844.91;5039572;28;20152;-51
2022/09/30 12:26:17;;;;;;;6.07;3.15;;;;;;;14.93;65.21;98838.03;5027168;28;20743;-46
2022/09/30 12:35:00;;;;;;;5.07;1.80;;;;;;;14.92;64.74;98815.47;5037648;27;20398;-42
2022/09/30 12:40:38;;;;;;;5.38;2.45;;;;;;;15.21;63.34;98784.72;5017473;27;20409;-45
2022/09/30 12:46:17;;;;;;;6.15;1.80;;;;;;;15.11;63.96;98789.47;5049382;27;20406;-43
2022/09/30 12:48:50;;;;;;;2.55;1.15;;;;;;;15.14;63.77;98794.56;5018506;28;20050;-42
2022/09/30 12:51:26;;;;;;;5.85;1.38;;;;;;;15.12;64.01;98781.59;5017832;28;20133;-42
2022/09/30 12:54:03;;;;;;;3.08;1.75;;;;;;;15.10;63.81;98783.41;5018910;28;20122;-45
2022/09/30 12:56:31;;;;;;;4.72;1.58;;;;;;;15.14;64.07;98779.75;5016382;28;20061;-43
2022/09/30 12:58:59;;;;;;;2.08;1.52;;;;;;;15.15;63.85;98775.41;5016543;28;20049;-43
2022/09/30 13:01:29;;;;;;;2.63;1.58;;;;;;;15.18;64.20;98780.50;5013158;28;20053;-44
2022/09/30 13:09:35;;;;;;;8.68;2.22;;;;;;;15.04;65.80;98794.09;5041699;27;20391;-41
2022/09/30 13:14:43;;;;;;;5.68;3.25;;;;;;;14.96;66.04;98801.41;5057582;27;20410;-43
2022/09/30 13:19:50;;;;;;;4.32;2.00;;;;;;;14.77;67.11;98786.50;5063745;28;20411;-44
2022/09/30 13:46:10;;;;;;;7.65;3.30;;;;;;;14.40;70.87;98760.13;5031770;28;20406;-41
2022/09/30 13:48:41;;;;;;;6.05;2.35;;;;;;;14.33;71.73;98746.50;5017606;28;20046;-43
2022/09/30 13:51:13;;;;;;;4.40;1.98;;;;;;;14.24;71.80;98737.28;5014849;28;20046;-44
2022/09/30 13:56:21;;;;;;;4.05;1.67;;;;;;;14.17;71.97;98716.75;5041035;28;20416;-41
2022/09/30 14:04:37;;;;;;;4.32;1.85;;;;;;;13.98;72.91;98686.22;5027294;27;20399;-41
2022/09/30 14:07:44;;;;;;;4.22;1.67;;;;;;;13.92;73.02;98683.88;5024656;28;20048;-43
2022/09/30 14:10:41;;;;;;;3.63;1.98;;;;;;;13.85;73.94;98678.06;5002812;28;20133;-43
2022/09/30 14:18:52;;;;;;;3.53;1.80;;;;;;;13.77;74.27;98649.69;5045372;27;20902;-43
2022/09/30 14:32:18;;;;;;;4.07;2.38;;;;;;;13.79;73.80;98634.91;5020492;28;21138;-44
2022/09/30 14:34:47;;;;;;;5.20;1.95;;;;;;;13.71;74.83;98619.56;5005216;28;20490;-41
2022/09/30 14:37:22;;;;;;;2.83;1.15;;;;;;;13.70;74.50;98609.22;5016828;28;20054;-42
2022/09/30 14:39:49;;;;;;;2.00;1.10;;;;;;;13.66;74.77;98607.63;5015292;28;20486;-44
2022/09/30 14:42:24;;;;;;;4.15;1.35;;;;;;;13.65;74.55;98598.16;5013138;28;20058;-42
2022/09/30 14:44:53;;;;;;;2.65;0.95;;;;;;;13.60;74.34;98596.56;5011828;28;20056;-42
2022/09/30 14:47:21;;;;;;;3.45;1.38;;;;;;;13.58;74.20;98567.16;5004676;28;20497;-41
2022/09/30 14:49:49;;;;;;;5.03;1.55;;;;;;;13.56;74.45;98563.78;5016125;28;20050;-44
2022/09/30 14:52:40;;;;;;;2.20;1.17;;;;;;;13.44;73.99;98569.44;5004132;28;20141;-41
2022/09/30 14:55:29;;;;;;;5.03;1.70;;;;;;;13.42;74.02;98566.03;4996920;28;20136;-43
2022/09/30 15:01:16;;;;;;;2.97;1.73;;;;;;;13.36;74.85;98567.97;5077967;27;20418;-41
2022/09/30 15:03:46;;;;;;;3.22;1.88;;;;;;;13.32;74.95;98571.59;5036171;28;20496;-45
2022/09/30 15:06:19;;;;;;;2.58;2.33;;;;;;;13.33;75.31;98562.88;5041164;28;20053;-43
2022/09/30 15:08:47;;;;;;;3.22;1.92;;;;;;;13.31;74.87;98569.88;5039847;28;20601;-45
2022/09/30 15:11:21;;;;;;;2.85;2.05;;;;;;;13.26;75.94;98568.34;5041105;28;20041;-44
2022/09/30 15:13:52;;;;;;;4.65;2.53;;;;;;;13.27;75.96;98552.69;5041262;28;20085;-45
2022/09/30 15:16:23;;;;;;;4.53;2.20;;;;;;;13.25;75.63;98546.72;5037175;28;20137;-45
2022/09/30 15:18:49;;;;;;;3.65;2.25;;;;;;;13.22;76.07;98544.25;5037761;28;20537;-43
2022/09/30 15:21:17;;;;;;;1.23;0.73;;;;;;;13.19;75.25;98526.16;5039692;28;20882;-43
2022/09/30 15:23:51;;;;;;;2.95;2.13;;;;;;;13.19;75.31;98528.75;5040734;28;20052;-41
2022/09/30 15:26:21;;;;;;;4.35;2.60;;;;;;;13.20;76.06;98514.84;5041024;28;20137;-41
2022/09/30 15:28:49;;;;;;;4.80;0.80;;;;;;;13.10;75.92;98510.00;5038738;28;20483;-44
2022/09/30 15:31:31;;;;;;;3.95;1.63;;;;;;;13.08;75.89;98511.81;5035328;28;20083;-42
2022/09/30 15:34:13;;;;;;;3.53;0.93;;;;;;;13.03;76.76;98500.75;5037694;28;20632;-42
2022/09/30 16:11:36;;;;;;;2.85;0.93;;;;;;;11.49;82.55;98379.78;5010404;27;20431;-85